Terminal Aerodrome Forecast
Issued by NWS

Home | Current Version | Previous Version | Graphics & Text | Print | Product List | Glossary On
Versions: 1 2 3 4 5 6 7 8 9 10 11 12 13 14 15 16 17 18 19
000
FTUS43 KTOP 182320
TAFMHK
TAF
KMHK 182320Z 1900/1924 18008KT P6SM SCT050
     FM190600 18004KT 3SM BR BKN018 OVC050
     FM191300 15004KT 2SM BR BKN003
     FM191600 15007KT 6SM BR BKN006=

USA.gov is the U.S. government's official web portal to all federal, state and local government web resources and services.